createdAt,value
2022-12-19T00:01:37.886Z,1.20
2022-12-19T00:04:08.795Z,1.20
2022-12-19T00:06:40.904Z,1.20
2022-12-19T00:09:11.817Z,1.30
2022-12-19T00:11:38.952Z,1.30
2022-12-19T00:14:06.698Z,1.20
2022-12-19T00:16:33.647Z,1.20
2022-12-19T00:19:01.400Z,1.20
2022-12-19T00:21:30.841Z,1.20
2022-12-19T00:24:00.923Z,1.30
2022-12-19T00:26:28.959Z,1.30
2022-12-19T00:28:58.506Z,1.40
2022-12-19T00:31:27.589Z,1.40
2022-12-19T00:33:54.712Z,1.40
2022-12-19T00:36:27.205Z,1.40
2022-12-19T00:38:57.311Z,1.40
2022-12-19T00:41:26.583Z,1.50
2022-12-19T00:43:59.830Z,1.50
2022-12-19T00:46:28.491Z,1.50
2022-12-19T00:48:55.716Z,1.60
2022-12-19T00:51:28.402Z,1.60
2022-12-19T00:53:57.017Z,1.60
2022-12-19T00:56:27.016Z,1.60
2022-12-19T00:58:54.916Z,1.60
2022-12-19T01:01:25.355Z,1.60
2022-12-19T01:04:26.642Z,1.70
2022-12-19T01:06:39.417Z,1.60
2022-12-19T01:09:12.024Z,1.70
2022-12-19T01:11:57.594Z,1.60
2022-12-19T01:14:24.336Z,1.70
2022-12-19T01:16:52.014Z,1.70
2022-12-19T01:19:19.944Z,1.80
2022-12-19T01:21:46.853Z,1.80
2022-12-19T01:24:15.836Z,1.80
2022-12-19T01:26:46.059Z,1.80
2022-12-19T01:29:12.827Z,1.80
2022-12-19T01:31:39.774Z,1.90
2022-12-19T01:34:06.799Z,1.80
2022-12-19T01:36:34.791Z,1.90
2022-12-19T01:39:06.530Z,1.80
2022-12-19T01:41:33.318Z,1.90
2022-12-19T01:44:05.773Z,1.90
2022-12-19T01:46:41.569Z,2.00
2022-12-19T01:49:16.216Z,2.00
2022-12-19T01:51:48.352Z,2.00
2022-12-19T01:54:19.960Z,2.10
2022-12-19T01:56:54.423Z,2.10
2022-12-19T01:59:26.610Z,2.20
2022-12-19T02:02:01.218Z,2.20
2022-12-19T02:04:32.263Z,2.20
2022-12-19T02:07:08.658Z,2.20
2022-12-19T02:09:43.593Z,2.30
2022-12-19T02:12:10.443Z,2.30
2022-12-19T02:14:37.310Z,2.30
2022-12-19T02:17:13.836Z,2.40
2022-12-19T02:19:40.598Z,2.40
2022-12-19T02:22:34.826Z,2.50
2022-12-19T02:25:10.555Z,2.50
2022-12-19T02:27:40.686Z,2.60
2022-12-19T02:30:38.331Z,2.60
2022-12-19T02:33:28.327Z,2.60
2022-12-19T02:36:01.861Z,2.60
2022-12-19T02:38:40.881Z,2.70
2022-12-19T02:41:19.103Z,2.80
2022-12-19T02:43:49.681Z,2.80
2022-12-19T02:46:20.799Z,2.90
2022-12-19T02:48:48.672Z,2.90
2022-12-19T02:51:15.896Z,2.90
2022-12-19T02:53:43.008Z,2.90
2022-12-19T02:56:33.697Z,2.90
2022-12-19T02:59:27.999Z,3.00
2022-12-19T03:02:00.238Z,3.00
2022-12-19T03:04:29.929Z,3.00
2022-12-19T03:07:33.527Z,3.00
2022-12-19T03:10:19.085Z,3.10
2022-12-19T03:12:51.985Z,3.10
2022-12-19T03:15:20.880Z,3.10
2022-12-19T03:17:48.455Z,3.10
2022-12-19T03:20:47.614Z,3.10
2022-12-19T03:23:15.230Z,3.10
2022-12-19T03:25:46.203Z,3.10
2022-12-19T03:28:20.635Z,3.10
2022-12-19T03:30:49.041Z,3.00
2022-12-19T03:33:18.486Z,3.00
2022-12-19T03:35:46.950Z,3.00
2022-12-19T03:38:15.545Z,3.00
2022-12-19T03:40:46.128Z,3.00
2022-12-19T03:43:16.401Z,3.00
2022-12-19T03:46:03.948Z,3.10
2022-12-19T03:48:47.355Z,3.10
2022-12-19T03:51:35.838Z,3.10
2022-12-19T03:54:17.231Z,3.10
2022-12-19T03:57:04.871Z,3.10
2022-12-19T03:59:38.009Z,3.20
2022-12-19T04:02:05.644Z,3.30
2022-12-19T04:04:37.922Z,3.20
2022-12-19T04:07:07.064Z,3.20
2022-12-19T04:09:35.538Z,3.30
2022-12-19T04:12:08.621Z,3.20
2022-12-19T04:14:40.053Z,3.20
2022-12-19T04:17:27.109Z,3.20
2022-12-19T04:20:05.658Z,3.20
2022-12-19T04:22:34.818Z,3.10
2022-12-19T04:25:03.190Z,3.10
2022-12-19T04:27:35.256Z,3.10
2022-12-19T04:30:03.816Z,3.20
2022-12-19T04:32:34.437Z,3.20
2022-12-19T04:35:01.698Z,3.20
2022-12-19T04:37:29.657Z,3.20
2022-12-19T04:39:56.459Z,3.20
2022-12-19T04:42:23.397Z,3.20
2022-12-19T04:44:50.153Z,3.20
2022-12-19T04:47:17.013Z,3.30
2022-12-19T04:49:44.189Z,3.30
2022-12-19T04:52:10.964Z,3.30
2022-12-19T04:54:38.160Z,3.30
2022-12-19T04:57:04.970Z,3.20
2022-12-19T04:59:33.357Z,3.30
2022-12-19T05:02:00.320Z,3.30
2022-12-19T05:04:27.394Z,3.30
2022-12-19T05:06:54.604Z,3.30
2022-12-19T05:09:21.679Z,3.30
2022-12-19T05:11:48.802Z,3.40
2022-12-19T05:14:15.808Z,3.40
2022-12-19T05:16:42.825Z,3.40
2022-12-19T05:19:09.765Z,3.40
2022-12-19T05:21:36.983Z,3.40
2022-12-19T05:24:04.165Z,3.40
2022-12-19T05:26:31.207Z,3.40
2022-12-19T05:28:58.150Z,3.50
2022-12-19T05:31:25.189Z,3.50
2022-12-19T05:33:52.310Z,3.50
2022-12-19T05:36:20.199Z,3.50
2022-12-19T05:38:47.144Z,3.50
2022-12-19T05:41:20.124Z,3.60
2022-12-19T05:43:51.226Z,3.60
2022-12-19T05:46:18.625Z,3.60
2022-12-19T05:48:45.539Z,3.60
2022-12-19T05:51:12.888Z,3.60
2022-12-19T05:53:41.488Z,3.60
2022-12-19T05:56:10.993Z,3.70
2022-12-19T05:58:38.759Z,3.70
2022-12-19T06:01:08.564Z,3.70
2022-12-19T06:03:35.576Z,3.80
2022-12-19T06:06:07.271Z,3.80
2022-12-19T06:08:34.330Z,3.80
2022-12-19T06:11:02.408Z,3.80
2022-12-19T06:13:30.265Z,3.80
2022-12-19T06:16:10.719Z,3.80
2022-12-19T06:18:42.876Z,3.90
2022-12-19T06:21:14.617Z,3.90
2022-12-19T06:23:42.301Z,4.00
2022-12-19T06:26:15.543Z,4.00
2022-12-19T06:28:45.924Z,4.00
2022-12-19T06:31:13.383Z,4.00
2022-12-19T06:33:40.376Z,4.10
2022-12-19T06:36:10.190Z,4.10
2022-12-19T06:38:37.153Z,4.30
2022-12-19T06:41:22.969Z,4.40
2022-12-19T06:43:53.388Z,4.20
2022-12-19T06:46:21.004Z,4.40
2022-12-19T06:48:48.047Z,4.30
2022-12-19T06:51:15.695Z,4.20
2022-12-19T06:53:44.014Z,4.20
2022-12-19T06:56:14.224Z,4.20
2022-12-19T06:58:41.377Z,4.30
2022-12-19T07:01:08.411Z,4.30
2022-12-19T07:03:40.220Z,4.20
2022-12-19T07:06:07.799Z,4.30
2022-12-19T07:08:34.689Z,4.40
2022-12-19T07:11:02.409Z,4.40
2022-12-19T07:13:29.225Z,4.40
2022-12-19T07:16:01.381Z,4.40
2022-12-19T07:18:31.437Z,4.50
2022-12-19T07:20:58.297Z,4.50
2022-12-19T07:23:25.165Z,4.50
2022-12-19T07:25:52.184Z,4.60
2022-12-19T07:28:19.367Z,4.60
2022-12-19T07:30:46.305Z,4.60
2022-12-19T07:33:18.301Z,4.60
2022-12-19T07:35:48.005Z,4.70
2022-12-19T07:38:18.119Z,4.70
2022-12-19T07:40:45.042Z,4.70
2022-12-19T07:43:12.005Z,4.70
2022-12-19T07:45:39.563Z,4.80
2022-12-19T07:48:07.537Z,4.80
2022-12-19T07:50:34.675Z,4.80
2022-12-19T07:53:01.908Z,4.80
2022-12-19T07:55:29.107Z,4.80
2022-12-19T07:57:56.134Z,4.90
2022-12-19T08:00:23.366Z,4.90
2022-12-19T08:02:50.609Z,4.90
2022-12-19T08:05:18.058Z,4.90
2022-12-19T08:07:45.033Z,4.90
2022-12-19T08:10:14.701Z,5.00
2022-12-19T08:12:41.986Z,5.00
2022-12-19T08:15:11.258Z,5.00
2022-12-19T08:17:41.141Z,5.10
2022-12-19T08:20:09.408Z,5.10
2022-12-19T08:22:36.274Z,5.10
2022-12-19T08:25:03.704Z,5.10
2022-12-19T08:27:30.584Z,5.20
2022-12-19T08:29:57.437Z,5.20
2022-12-19T08:32:24.230Z,5.20
2022-12-19T08:34:51.331Z,5.20
2022-12-19T08:37:18.320Z,5.30
2022-12-19T08:39:45.502Z,5.30
2022-12-19T08:42:12.395Z,5.30
2022-12-19T08:44:39.340Z,5.30
2022-12-19T08:47:06.371Z,5.30
2022-12-19T08:49:33.375Z,5.30
2022-12-19T08:52:00.307Z,5.40
2022-12-19T08:54:27.327Z,5.40
2022-12-19T08:56:54.175Z,5.50
2022-12-19T08:59:30.436Z,5.50
2022-12-19T09:01:59.593Z,5.50
2022-12-19T09:05:59.778Z,5.50
2022-12-19T09:07:15.528Z,5.50
2022-12-19T09:09:43.535Z,5.60
2022-12-19T09:12:10.581Z,5.60
2022-12-19T09:14:37.519Z,5.70
2022-12-19T09:17:05.005Z,5.70
2022-12-19T09:19:32.282Z,5.70
2022-12-19T09:22:00.510Z,5.70
2022-12-19T09:24:27.568Z,5.70
2022-12-19T09:26:54.408Z,5.80
2022-12-19T09:29:22.189Z,5.70
2022-12-19T09:31:55.576Z,5.80
2022-12-19T09:34:27.435Z,5.80
2022-12-19T09:37:03.157Z,5.80
2022-12-19T09:39:33.330Z,5.80
2022-12-19T09:42:21.106Z,5.80
2022-12-19T09:45:38.526Z,5.90
2022-12-19T09:48:24.036Z,5.90
2022-12-19T09:51:15.304Z,6.00
2022-12-19T09:53:54.613Z,6.00
2022-12-19T09:56:23.978Z,6.00
2022-12-19T09:58:58.371Z,6.00
2022-12-19T10:01:36.245Z,6.10
2022-12-19T10:04:12.127Z,6.10
2022-12-19T10:07:11.271Z,6.10
2022-12-19T10:11:32.612Z,6.10
2022-12-19T10:12:50.959Z,6.20
2022-12-19T10:15:56.159Z,6.10
2022-12-19T10:18:38.160Z,6.10
2022-12-19T10:21:11.686Z,6.20
2022-12-19T10:24:02.839Z,6.20
2022-12-19T10:26:37.643Z,6.20
2022-12-19T10:29:15.814Z,6.20
2022-12-19T10:32:00.782Z,6.30
2022-12-19T10:34:40.792Z,6.30
2022-12-19T10:37:38.482Z,6.40
2022-12-19T10:40:27.617Z,6.40
2022-12-19T10:43:30.137Z,6.50
2022-12-19T10:46:04.180Z,6.50
2022-12-19T10:48:31.742Z,6.60
2022-12-19T10:51:00.664Z,6.60
2022-12-19T10:53:34.436Z,6.60
2022-12-19T10:56:12.555Z,6.60
2022-12-19T10:58:44.393Z,6.60
2022-12-19T11:01:26.244Z,6.70
2022-12-19T11:04:26.486Z,6.70
2022-12-19T11:07:11.395Z,6.70
2022-12-19T11:09:52.063Z,6.70
2022-12-19T11:16:46.296Z,6.70
2022-12-19T11:21:27.074Z,6.70
2022-12-19T11:26:24.805Z,6.70
2022-12-19T11:29:54.186Z,6.60
2022-12-19T11:30:46.079Z,6.60
2022-12-19T11:30:46.938Z,6.70
2022-12-19T11:32:45.444Z,6.60
2022-12-19T11:35:25.451Z,6.60
2022-12-19T11:38:06.108Z,6.60
2022-12-19T11:40:56.285Z,6.70
2022-12-19T11:43:46.085Z,6.60
2022-12-19T11:46:40.659Z,6.70
2022-12-19T11:49:32.466Z,6.70
2022-12-19T11:53:02.085Z,6.70
2022-12-19T11:55:25.792Z,6.70
2022-12-19T11:57:54.451Z,6.80
2022-12-19T12:00:24.498Z,6.80
2022-12-19T12:03:06.945Z,6.80
2022-12-19T12:05:43.986Z,6.80
2022-12-19T12:10:36.880Z,6.90
2022-12-19T12:15:13.581Z,6.90
2022-12-19T12:25:47.074Z,7.00
2022-12-19T12:31:01.414Z,7.00
2022-12-19T12:31:04.759Z,7.10
2022-12-19T12:31:28.656Z,7.10
2022-12-19T12:31:48.867Z,7.20
2022-12-19T12:32:01.911Z,7.20
2022-12-19T12:38:10.925Z,7.30
2022-12-19T12:44:11.943Z,7.40
2022-12-19T12:46:50.346Z,7.50
2022-12-19T12:53:19.798Z,7.50
2022-12-19T12:56:17.332Z,7.60
2022-12-19T12:59:49.651Z,7.60
2022-12-19T13:10:32.368Z,7.80
2022-12-19T13:13:27.012Z,7.80
2022-12-19T13:16:17.435Z,7.90
2022-12-19T13:19:48.601Z,7.90
2022-12-19T13:25:57.356Z,8.00
2022-12-19T13:29:22.265Z,8.00
2022-12-19T13:32:22.430Z,8.00
2022-12-19T13:36:48.869Z,8.00
2022-12-19T13:39:56.902Z,8.00
2022-12-19T13:42:50.434Z,8.00
2022-12-19T13:45:37.153Z,8.10
2022-12-19T13:51:31.967Z,8.00
2022-12-19T13:54:01.161Z,8.00
2022-12-19T13:56:45.797Z,8.00
2022-12-19T13:59:21.674Z,7.90
2022-12-19T14:02:20.839Z,7.90
2022-12-19T14:04:51.913Z,7.90
2022-12-19T14:07:47.870Z,7.90
2022-12-19T14:11:27.404Z,7.90
2022-12-19T14:13:41.211Z,7.90
2022-12-19T14:16:35.018Z,7.90
2022-12-19T14:19:30.172Z,7.80
2022-12-19T14:22:20.649Z,7.90
2022-12-19T14:25:45.123Z,7.90
2022-12-19T14:28:18.323Z,7.80
2022-12-19T14:30:59.530Z,7.80
2022-12-19T14:33:58.901Z,7.80
2022-12-19T14:36:31.435Z,7.80
2022-12-19T14:39:23.669Z,7.80
2022-12-19T14:42:07.262Z,7.90
2022-12-19T14:52:25.896Z,7.90
2022-12-19T14:54:10.123Z,7.80
2022-12-19T14:54:33.975Z,7.80
2022-12-19T14:54:34.714Z,7.80
2022-12-19T14:56:57.575Z,7.90
2022-12-19T14:59:05.898Z,7.90
2022-12-19T15:01:35.032Z,7.90
2022-12-19T15:04:51.294Z,7.90
2022-12-19T15:07:07.333Z,7.90
2022-12-19T15:11:04.812Z,7.90
2022-12-19T15:14:52.403Z,7.90
2022-12-19T15:16:07.427Z,7.90
2022-12-19T15:18:39.599Z,7.90
2022-12-19T15:21:12.762Z,7.90
2022-12-19T15:23:39.913Z,7.90
2022-12-19T15:26:16.504Z,7.90
2022-12-19T15:28:55.514Z,7.90
2022-12-19T15:31:24.384Z,8.00
2022-12-19T15:36:38.578Z,8.00
2022-12-19T15:39:05.548Z,8.00
2022-12-19T15:41:32.515Z,7.90
2022-12-19T15:44:04.103Z,8.00
2022-12-19T15:46:32.680Z,8.00
2022-12-19T15:49:02.234Z,8.00
2022-12-19T15:51:29.136Z,8.00
2022-12-19T15:54:04.182Z,8.00
2022-12-19T15:56:52.655Z,8.00
2022-12-19T15:59:22.492Z,8.00
2022-12-19T16:01:51.550Z,8.00
2022-12-19T16:04:19.055Z,8.00
2022-12-19T16:06:48.750Z,8.00
2022-12-19T16:09:27.703Z,8.00
2022-12-19T16:11:55.066Z,8.00
2022-12-19T16:14:22.888Z,8.00
2022-12-19T16:16:54.455Z,8.00
2022-12-19T16:19:30.513Z,8.10
2022-12-19T16:21:58.355Z,8.10
2022-12-19T16:24:26.090Z,8.10
2022-12-19T16:26:56.302Z,8.10
2022-12-19T16:29:29.136Z,8.10
2022-12-19T16:31:56.537Z,8.10
2022-12-19T16:34:24.561Z,8.00
2022-12-19T16:36:52.160Z,8.10
2022-12-19T16:39:18.998Z,8.10
2022-12-19T16:41:47.314Z,8.00
2022-12-19T16:44:23.057Z,8.00
2022-12-19T16:46:51.697Z,8.10
2022-12-19T16:49:25.627Z,8.10
2022-12-19T16:51:52.722Z,8.10
2022-12-19T16:54:20.180Z,8.10
2022-12-19T16:56:49.326Z,8.20
2022-12-19T16:59:26.608Z,8.20
2022-12-19T17:01:54.178Z,8.20
2022-12-19T17:04:23.370Z,8.20
2022-12-19T17:06:52.746Z,8.20
2022-12-19T17:09:22.215Z,8.30
2022-12-19T17:11:52.957Z,8.20
2022-12-19T17:14:22.939Z,8.20
2022-12-19T17:16:55.336Z,8.20
2022-12-19T17:19:32.209Z,8.20
2022-12-19T17:21:59.163Z,8.20
2022-12-19T17:24:26.099Z,8.20
2022-12-19T17:26:53.236Z,8.20
2022-12-19T17:29:20.117Z,8.20
2022-12-19T17:31:47.890Z,8.20
2022-12-19T17:34:24.389Z,8.20
2022-12-19T17:36:51.390Z,8.20
2022-12-19T17:39:22.360Z,8.20
2022-12-19T17:41:50.564Z,8.20
2022-12-19T17:44:17.929Z,8.20
2022-12-19T17:46:46.075Z,8.20
2022-12-19T17:49:26.349Z,8.20
2022-12-19T17:51:54.473Z,8.20
2022-12-19T17:54:22.413Z,8.20
2022-12-19T17:56:50.358Z,8.20
2022-12-19T17:59:17.297Z,8.20
2022-12-19T18:01:47.151Z,8.30
2022-12-19T18:04:17.062Z,8.20
2022-12-19T18:06:44.955Z,8.30
2022-12-19T18:09:20.888Z,8.30
2022-12-19T18:11:48.969Z,8.30
2022-12-19T18:14:16.977Z,8.30
2022-12-19T18:16:45.098Z,8.40
2022-12-19T18:19:21.198Z,8.30
2022-12-19T18:21:48.582Z,8.40
2022-12-19T18:24:18.508Z,8.40
2022-12-19T18:26:45.694Z,8.40
2022-12-19T18:29:13.306Z,8.40
2022-12-19T18:31:46.498Z,8.50
2022-12-19T18:34:22.727Z,8.50
2022-12-19T18:36:50.201Z,8.40
2022-12-19T18:39:29.012Z,8.40
2022-12-19T18:41:55.921Z,8.50
2022-12-19T18:44:23.432Z,8.60
2022-12-19T18:46:51.685Z,8.50
2022-12-19T18:49:19.379Z,8.60
2022-12-19T18:51:46.700Z,8.50
2022-12-19T18:54:19.360Z,8.60
2022-12-19T18:56:46.700Z,8.60
2022-12-19T18:59:14.353Z,8.60
2022-12-19T19:01:44.056Z,8.60
2022-12-19T19:04:13.380Z,8.60
2022-12-19T19:06:46.574Z,8.70
2022-12-19T19:09:18.258Z,8.70
2022-12-19T19:11:45.184Z,8.70
2022-12-19T19:14:12.462Z,8.70
2022-12-19T19:16:40.115Z,8.70
2022-12-19T19:19:10.624Z,8.70
2022-12-19T19:21:38.632Z,8.80
2022-12-19T19:24:34.870Z,8.80
2022-12-19T19:27:02.550Z,8.80
2022-12-19T19:29:29.402Z,8.80
2022-12-19T19:31:56.343Z,8.80
2022-12-19T19:34:31.585Z,8.90
2022-12-19T19:37:03.889Z,8.90
2022-12-19T19:39:33.710Z,8.90
2022-12-19T19:42:01.290Z,8.90
2022-12-19T19:44:28.831Z,8.90
2022-12-19T19:46:56.002Z,9.00
2022-12-19T19:49:23.605Z,9.00
2022-12-19T19:51:51.643Z,9.10
2022-12-19T19:54:21.292Z,9.10
2022-12-19T19:56:48.895Z,9.10
2022-12-19T19:59:15.815Z,9.00
2022-12-19T20:01:42.747Z,9.10
2022-12-19T20:04:09.919Z,9.20
2022-12-19T20:06:36.998Z,9.10
2022-12-19T20:09:04.188Z,9.20
2022-12-19T20:11:31.061Z,9.20
2022-12-19T20:13:57.967Z,9.20
2022-12-19T20:16:25.276Z,9.20
2022-12-19T20:18:53.221Z,9.20
2022-12-19T20:21:21.222Z,9.30
2022-12-19T20:23:48.203Z,9.20
2022-12-19T20:26:16.526Z,9.30
2022-12-19T20:28:50.283Z,9.30
2022-12-19T20:31:22.437Z,9.30
2022-12-19T20:33:50.799Z,9.40
2022-12-19T20:36:18.282Z,9.30
2022-12-19T20:38:45.555Z,9.40
2022-12-19T20:41:12.954Z,9.40
2022-12-19T20:43:39.811Z,9.40
2022-12-19T20:46:15.544Z,9.40
2022-12-19T20:48:43.223Z,9.50
2022-12-19T20:51:11.031Z,9.40
2022-12-19T20:53:39.319Z,9.40
2022-12-19T20:56:07.831Z,9.40
2022-12-19T20:58:36.200Z,9.50
2022-12-19T21:01:14.929Z,9.40
2022-12-19T21:03:43.455Z,9.40
2022-12-19T21:06:12.260Z,9.40
2022-12-19T21:08:40.077Z,9.40
2022-12-19T21:11:08.464Z,9.40
2022-12-19T21:13:36.695Z,9.50
2022-12-19T21:16:08.953Z,9.60
2022-12-19T21:18:41.435Z,9.60
2022-12-19T21:21:11.473Z,9.60
2022-12-19T21:23:38.312Z,9.60
2022-12-19T21:26:05.408Z,9.60
2022-12-19T21:28:32.975Z,9.60
2022-12-19T21:31:03.449Z,9.60
2022-12-19T21:33:30.628Z,9.70
2022-12-19T21:35:57.535Z,9.70
2022-12-19T21:38:24.757Z,9.70
2022-12-19T21:40:51.553Z,9.80
2022-12-19T21:43:18.491Z,9.80
2022-12-19T21:45:45.342Z,9.90
2022-12-19T21:48:12.200Z,9.90
2022-12-19T21:50:39.078Z,9.80
2022-12-19T21:53:05.956Z,9.90
2022-12-19T21:55:32.837Z,10.00
2022-12-19T21:58:00.131Z,9.90
2022-12-19T22:00:27.030Z,9.90
2022-12-19T22:03:13.419Z,9.90
2022-12-19T22:05:41.012Z,9.90
2022-12-19T22:08:10.729Z,9.90
2022-12-19T22:10:39.757Z,10.00
2022-12-19T22:13:06.629Z,9.90
2022-12-19T22:15:35.870Z,9.90
2022-12-19T22:18:02.657Z,9.90
2022-12-19T22:20:30.186Z,10.00
2022-12-19T22:22:56.970Z,10.00
2022-12-19T22:25:23.831Z,10.00
2022-12-19T22:27:50.797Z,10.00
2022-12-19T22:30:17.658Z,10.10
2022-12-19T22:32:44.583Z,10.00
2022-12-19T22:35:11.455Z,10.10
2022-12-19T22:37:38.396Z,10.10
2022-12-19T22:40:06.119Z,10.10
2022-12-19T22:42:34.128Z,10.10
2022-12-19T22:45:00.964Z,10.10
2022-12-19T22:47:27.792Z,10.20
2022-12-19T22:49:54.624Z,10.20
2022-12-19T22:52:21.472Z,10.20
2022-12-19T22:54:48.381Z,10.20
2022-12-19T22:57:15.622Z,10.30
2022-12-19T22:59:42.455Z,10.20
2022-12-19T23:02:09.897Z,10.30
2022-12-19T23:04:36.889Z,10.20
2022-12-19T23:07:04.246Z,10.30
2022-12-19T23:09:32.754Z,10.30
2022-12-19T23:11:59.532Z,10.30
2022-12-19T23:14:26.344Z,10.20
2022-12-19T23:16:53.233Z,10.30
2022-12-19T23:19:20.128Z,10.40
2022-12-19T23:21:47.396Z,10.40
2022-12-19T23:24:14.389Z,10.30
2022-12-19T23:26:41.594Z,10.40
2022-12-19T23:29:11.235Z,10.40
2022-12-19T23:31:41.805Z,10.40
2022-12-19T23:34:08.832Z,10.40
2022-12-19T23:37:09.717Z,10.50
2022-12-19T23:39:22.391Z,10.50
2022-12-19T23:41:49.158Z,10.50
2022-12-19T23:44:16.115Z,10.50
2022-12-19T23:46:45.726Z,10.50
2022-12-19T23:49:12.554Z,10.60
2022-12-19T23:51:39.410Z,10.60
2022-12-19T23:54:06.220Z,10.60
2022-12-19T23:56:33.185Z,10.60
2022-12-19T23:59:00.352Z,10.60
